createdAt,value
2016-07-03T10:17:00.325Z,425
2016-07-03T10:18:00.323Z,435
2016-07-03T10:19:00.383Z,415
2016-07-03T10:20:00.355Z,465
2016-07-03T10:21:00.312Z,510
2016-07-03T10:22:00.594Z,500
2016-07-03T10:23:00.371Z,515
2016-07-03T10:24:00.417Z,490
2016-07-03T10:25:00.638Z,435
2016-07-03T10:26:00.383Z,370
2016-07-03T10:27:00.389Z,320
2016-07-03T10:28:00.384Z,290
2016-07-03T10:29:00.332Z,305
2016-07-03T10:30:00.297Z,385
2016-07-03T10:31:00.273Z,410
2016-07-03T10:32:00.339Z,365
2016-07-03T10:33:00.319Z,430
2016-07-03T10:34:00.338Z,465
2016-07-03T10:35:00.301Z,515
2016-07-03T10:36:00.319Z,490
2016-07-03T10:37:00.307Z,420
2016-07-03T10:38:00.444Z,345
2016-07-03T10:39:00.300Z,360
2016-07-03T10:40:00.524Z,375
2016-07-03T10:41:00.489Z,325
2016-07-03T10:42:00.424Z,340
2016-07-03T10:43:00.434Z,380
2016-07-03T10:44:00.375Z,400
2016-07-03T10:45:00.338Z,415
2016-07-03T10:46:00.321Z,430
2016-07-03T10:47:00.439Z,370
2016-07-03T10:48:00.354Z,315
2016-07-03T10:49:00.398Z,305
2016-07-03T10:50:00.507Z,300
2016-07-03T10:51:00.524Z,280
2016-07-03T10:52:01.555Z,285
2016-07-03T10:53:00.606Z,315
2016-07-03T10:54:00.318Z,370
2016-07-03T10:55:00.295Z,405
2016-07-03T10:56:00.309Z,430
2016-07-03T10:57:00.329Z,470
2016-07-03T10:58:00.345Z,400
2016-07-03T10:59:00.345Z,320
2016-07-03T11:00:00.324Z,300
2016-07-03T11:01:00.379Z,270
2016-07-03T11:02:00.404Z,320
2016-07-03T11:03:00.405Z,360
2016-07-03T11:04:00.607Z,395
2016-07-03T11:05:00.599Z,355
2016-07-03T11:06:00.477Z,365
2016-07-03T11:07:00.537Z,455
2016-07-03T11:08:00.474Z,480
2016-07-03T11:09:00.423Z,445
2016-07-03T11:10:00.448Z,390
2016-07-03T11:11:00.592Z,365
2016-07-03T11:12:00.527Z,350
2016-07-03T11:13:00.413Z,365
2016-07-03T11:14:00.476Z,410
2016-07-03T11:15:00.688Z,370
2016-07-03T11:16:00.559Z,410
2016-07-03T11:17:00.444Z,460
2016-07-03T11:18:00.374Z,440
2016-07-03T11:19:00.375Z,485
2016-07-03T11:20:00.455Z,455
2016-07-03T11:21:00.383Z,440
2016-07-03T11:22:00.386Z,435
2016-07-03T11:23:00.351Z,435
2016-07-03T11:24:00.357Z,415
2016-07-03T11:25:00.437Z,440
2016-07-03T11:26:00.348Z,445
2016-07-03T11:27:00.611Z,455
2016-07-03T11:28:00.356Z,425
2016-07-03T11:29:00.440Z,430
2016-07-03T11:30:00.419Z,375
2016-07-03T11:31:00.550Z,335
2016-07-03T11:32:00.400Z,350
2016-07-03T11:33:00.348Z,340
2016-07-03T11:34:00.345Z,350
2016-07-03T11:35:00.398Z,355
2016-07-03T11:36:00.430Z,310
2016-07-03T11:37:00.373Z,310
2016-07-03T11:38:00.423Z,320
2016-07-03T11:39:01.026Z,335
2016-07-03T11:40:00.479Z,320
2016-07-03T11:41:00.362Z,310
2016-07-03T11:42:00.452Z,315
2016-07-03T11:43:00.452Z,315
2016-07-03T11:44:00.405Z,385
2016-07-03T11:45:00.384Z,440
2016-07-03T11:46:00.369Z,450
2016-07-03T11:47:01.298Z,470
2016-07-03T11:48:00.485Z,480
2016-07-03T11:49:00.533Z,450
2016-07-03T11:50:00.452Z,450
2016-07-03T11:51:00.495Z,485
2016-07-03T11:52:01.116Z,420
2016-07-03T11:53:00.607Z,360
2016-07-03T11:54:00.552Z,350
2016-07-03T11:55:00.504Z,360
2016-07-03T11:56:00.602Z,355
2016-07-03T11:57:01.466Z,365
2016-07-03T11:58:00.594Z,365
2016-07-03T11:59:00.574Z,355
2016-07-03T12:00:01.264Z,330
2016-07-03T12:01:00.483Z,310
2016-07-03T12:02:00.504Z,350
2016-07-03T12:03:00.511Z,355
2016-07-03T12:04:00.579Z,345
2016-07-03T12:05:00.541Z,315
2016-07-03T12:06:01.234Z,280
2016-07-03T12:07:00.533Z,275
2016-07-03T12:08:00.538Z,265
2016-07-03T12:09:00.515Z,215
2016-07-03T12:10:00.501Z,185
2016-07-03T12:11:00.461Z,185
2016-07-03T12:12:00.434Z,170
2016-07-03T12:13:00.415Z,145
2016-07-03T12:14:00.748Z,140
2016-07-03T12:15:00.452Z,145
2016-07-03T12:16:00.546Z,195
2016-07-03T12:17:00.416Z,245
2016-07-03T12:18:00.537Z,265
2016-07-03T12:19:00.932Z,325
2016-07-03T12:20:00.654Z,395
2016-07-03T12:21:00.605Z,455
2016-07-03T12:22:00.559Z,500
2016-07-03T12:23:00.994Z,495
2016-07-03T12:24:01.702Z,495
2016-07-03T12:25:00.739Z,520
2016-07-03T12:26:00.453Z,510
2016-07-03T12:27:00.790Z,460
2016-07-03T12:28:00.726Z,390
2016-07-03T12:29:00.775Z,320
2016-07-03T12:30:00.809Z,310
2016-07-03T12:31:01.646Z,340
2016-07-03T12:32:01.395Z,345
2016-07-03T12:33:00.631Z,355
2016-07-03T12:34:00.502Z,410
2016-07-03T12:35:00.702Z,475
2016-07-03T12:36:01.637Z,505
2016-07-03T12:37:00.643Z,490
2016-07-03T12:38:00.609Z,480
2016-07-03T12:39:00.754Z,480
2016-07-03T12:40:00.964Z,485
2016-07-03T12:41:00.535Z,465
2016-07-03T12:42:00.678Z,435
2016-07-03T12:43:00.547Z,440
2016-07-03T12:44:00.450Z,435
2016-07-03T12:45:00.727Z,455
2016-07-03T12:46:00.677Z,405
2016-07-03T12:47:00.488Z,330
2016-07-03T12:48:01.173Z,285
2016-07-03T12:49:00.694Z,290
2016-07-03T12:50:01.154Z,280
2016-07-03T12:51:00.688Z,265
2016-07-03T12:52:00.420Z,265
2016-07-03T12:53:00.504Z,270
2016-07-03T12:54:00.446Z,275
2016-07-03T12:55:00.549Z,270
2016-07-03T12:56:00.749Z,255
2016-07-03T12:57:00.602Z,245
2016-07-03T12:58:00.583Z,240
2016-07-03T12:59:00.576Z,230
2016-07-03T13:00:00.661Z,230
2016-07-03T13:01:00.738Z,230
2016-07-03T13:02:00.600Z,250
2016-07-03T13:03:00.728Z,275
2016-07-03T13:04:00.600Z,310
2016-07-03T13:05:00.892Z,360
2016-07-03T13:06:00.993Z,395
2016-07-03T13:07:00.531Z,410
2016-07-03T13:08:00.515Z,410
2016-07-03T13:09:00.526Z,390
2016-07-03T13:10:00.476Z,370
2016-07-03T13:11:00.595Z,345
2016-07-03T13:12:00.594Z,315
2016-07-03T13:13:00.429Z,300
2016-07-03T13:14:00.508Z,285
2016-07-03T13:15:00.511Z,270
2016-07-03T13:16:00.567Z,260
2016-07-03T13:17:00.571Z,245
2016-07-03T13:18:00.573Z,240
2016-07-03T13:19:00.567Z,235
2016-07-03T13:20:01.831Z,235
2016-07-03T13:21:00.458Z,235
2016-07-03T13:22:00.478Z,230
2016-07-03T13:23:00.551Z,230
2016-07-03T13:24:00.489Z,235
2016-07-03T13:25:00.467Z,235
2016-07-03T13:26:00.478Z,225
2016-07-03T13:27:00.522Z,230
2016-07-03T13:28:00.689Z,230
2016-07-03T13:29:00.526Z,220
2016-07-03T13:30:00.553Z,220
2016-07-03T13:31:00.712Z,220
2016-07-03T13:32:05.517Z,230
2016-07-03T13:33:00.508Z,245
2016-07-03T13:34:00.513Z,265
2016-07-03T13:35:00.581Z,280
2016-07-03T13:36:00.755Z,280
2016-07-03T13:37:00.507Z,290
2016-07-03T13:38:01.189Z,300
2016-07-03T13:39:01.145Z,310
2016-07-03T13:40:00.635Z,310
2016-07-03T13:41:00.558Z,325
2016-07-03T13:42:00.814Z,335
2016-07-03T13:43:00.660Z,340
2016-07-03T13:44:00.674Z,345
2016-07-03T13:45:00.664Z,345
2016-07-03T13:46:00.500Z,345
2016-07-03T13:47:00.593Z,335
2016-07-03T13:48:00.625Z,335
2016-07-03T13:49:01.025Z,320
2016-07-03T13:50:00.531Z,315
2016-07-03T13:51:00.561Z,300
2016-07-03T13:52:00.687Z,280
2016-07-03T13:53:01.127Z,260
2016-07-03T13:54:00.544Z,245
2016-07-03T13:55:00.606Z,230
2016-07-03T13:56:02.954Z,220
2016-07-03T13:57:00.540Z,210
2016-07-03T13:58:00.651Z,200
2016-07-03T13:59:00.638Z,195
2016-07-03T14:00:00.541Z,190
2016-07-03T14:01:00.816Z,185
2016-07-03T14:02:00.517Z,180
2016-07-03T14:03:00.486Z,170
2016-07-03T14:04:00.548Z,165
2016-07-03T14:05:00.935Z,160
2016-07-03T14:06:00.644Z,155
2016-07-03T14:07:00.688Z,150
2016-07-03T14:08:00.489Z,145
2016-07-03T14:09:00.914Z,145
2016-07-03T14:10:00.542Z,140
2016-07-03T14:11:00.659Z,140
2016-07-03T14:12:00.628Z,140
2016-07-03T14:13:00.608Z,140
2016-07-03T14:14:00.598Z,140
2016-07-03T14:15:00.518Z,140
2016-07-03T14:16:00.612Z,140
2016-07-03T14:17:00.605Z,140
2016-07-03T14:18:00.541Z,140
2016-07-03T14:19:00.572Z,140
2016-07-03T14:20:00.816Z,140
2016-07-03T14:21:00.543Z,140
2016-07-03T14:22:00.671Z,140
2016-07-03T14:23:01.202Z,140
2016-07-03T14:24:00.607Z,140
2016-07-03T14:25:00.669Z,140
2016-07-03T14:26:00.751Z,140
2016-07-03T14:27:00.925Z,140
2016-07-03T14:28:00.633Z,140
2016-07-03T14:29:01.205Z,140
2016-07-03T14:30:00.594Z,140
2016-07-03T14:31:00.838Z,140
2016-07-03T14:32:02.954Z,140
2016-07-03T14:33:00.670Z,140
2016-07-03T14:34:00.836Z,145
2016-07-03T14:35:01.025Z,145
2016-07-03T14:36:00.608Z,150
2016-07-03T14:37:00.955Z,150
2016-07-03T14:38:00.694Z,150
2016-07-03T14:39:00.723Z,150
2016-07-03T14:40:00.593Z,155
2016-07-03T14:41:00.585Z,155
2016-07-03T14:42:00.605Z,155
2016-07-03T14:43:00.634Z,145
2016-07-03T14:44:00.623Z,150
2016-07-03T14:45:00.864Z,150
2016-07-03T14:46:00.637Z,155
2016-07-03T14:47:01.305Z,150
2016-07-03T14:48:00.654Z,155
2016-07-03T14:49:00.669Z,155
2016-07-03T14:50:00.678Z,155
2016-07-03T14:51:00.592Z,155
2016-07-03T14:52:00.562Z,150
2016-07-03T14:53:00.665Z,155
2016-07-03T14:54:00.649Z,155
2016-07-03T14:55:00.613Z,155
2016-07-03T14:56:00.560Z,155
2016-07-03T14:57:00.636Z,155
2016-07-03T14:58:00.576Z,155
2016-07-03T14:59:00.694Z,155
2016-07-03T15:00:00.965Z,150
2016-07-03T15:01:00.603Z,150
2016-07-03T15:02:00.763Z,150
2016-07-03T15:03:01.562Z,155
2016-07-03T15:04:00.665Z,155
2016-07-03T15:05:00.999Z,155
2016-07-03T15:06:00.587Z,155
2016-07-03T15:07:00.664Z,155
2016-07-03T15:08:00.736Z,160
2016-07-03T15:09:00.619Z,155
2016-07-03T15:10:00.674Z,160
2016-07-03T15:11:00.752Z,155
2016-07-03T15:12:01.024Z,160
2016-07-03T15:13:00.814Z,160
2016-07-03T15:14:00.668Z,170
2016-07-03T15:15:00.787Z,175
2016-07-03T15:16:00.667Z,175
2016-07-03T15:17:00.818Z,175
2016-07-03T15:18:00.769Z,180
2016-07-03T15:19:00.652Z,185
2016-07-03T15:20:00.642Z,180
2016-07-03T15:21:01.644Z,170
2016-07-03T15:22:00.714Z,165
2016-07-03T15:23:00.600Z,165
2016-07-03T15:24:00.899Z,165
2016-07-03T15:25:00.857Z,180
2016-07-03T15:26:00.843Z,190
2016-07-03T15:27:01.053Z,195
2016-07-03T15:28:00.757Z,195
2016-07-03T15:29:01.157Z,190
2016-07-03T15:30:01.006Z,175
2016-07-03T15:31:00.788Z,170
2016-07-03T15:32:00.749Z,170
2016-07-03T15:33:00.558Z,175
2016-07-03T15:34:00.581Z,185
2016-07-03T15:35:00.875Z,190
2016-07-03T15:36:00.705Z,180
2016-07-03T15:37:00.649Z,170
2016-07-03T15:38:00.710Z,155
2016-07-03T15:39:00.704Z,160
2016-07-03T15:40:00.673Z,195
2016-07-03T15:41:00.761Z,220
2016-07-03T15:42:00.637Z,230
2016-07-03T15:43:00.822Z,235
2016-07-03T15:44:00.882Z,235
2016-07-03T15:45:00.694Z,245
2016-07-03T15:46:00.703Z,245
2016-07-03T15:47:00.709Z,255
2016-07-03T15:48:01.270Z,275
2016-07-03T15:49:00.638Z,260
2016-07-03T15:50:00.682Z,230
2016-07-03T15:51:00.643Z,210
2016-07-03T15:52:00.620Z,190
2016-07-03T15:53:00.796Z,180
2016-07-03T15:54:00.863Z,180
2016-07-03T15:55:00.723Z,205
2016-07-03T15:56:00.627Z,240
2016-07-03T15:57:00.654Z,235
2016-07-03T15:58:00.597Z,210
2016-07-03T15:59:00.750Z,185
2016-07-03T16:00:00.667Z,170
2016-07-03T16:01:00.678Z,165
2016-07-03T16:02:00.736Z,160
2016-07-03T16:03:00.678Z,160
2016-07-03T16:04:00.664Z,150
2016-07-03T16:05:00.726Z,140
2016-07-03T16:06:00.738Z,130
2016-07-03T16:07:00.635Z,125
2016-07-03T16:08:00.944Z,115
2016-07-03T16:09:01.840Z,95
2016-07-03T16:10:01.501Z,80
2016-07-03T16:11:01.251Z,75
2016-07-03T16:12:00.948Z,75
2016-07-03T16:13:00.705Z,80
2016-07-03T16:14:00.740Z,80
2016-07-03T16:15:00.857Z,80
2016-07-03T16:16:00.831Z,75
2016-07-03T16:17:01.539Z,75
2016-07-03T16:18:00.862Z,70
2016-07-03T16:19:00.717Z,60
2016-07-03T16:20:00.701Z,55
2016-07-03T16:21:01.331Z,55
2016-07-03T16:22:00.847Z,55
2016-07-03T16:23:00.924Z,50
2016-07-03T16:24:00.849Z,50
2016-07-03T16:25:00.974Z,50
2016-07-03T16:26:00.776Z,50
2016-07-03T16:27:00.814Z,55
2016-07-03T16:28:00.782Z,65
2016-07-03T16:29:00.751Z,75
2016-07-03T16:30:00.810Z,80
2016-07-03T16:31:00.685Z,85
2016-07-03T16:32:00.805Z,80
2016-07-03T16:33:00.853Z,75
2016-07-03T16:34:00.671Z,65
2016-07-03T16:35:00.774Z,55
2016-07-03T16:36:00.707Z,45
2016-07-03T16:37:00.838Z,35
2016-07-03T16:38:00.882Z,30
2016-07-03T16:39:00.667Z,30
2016-07-03T16:40:00.717Z,25
2016-07-03T16:41:00.725Z,25
2016-07-03T16:42:00.751Z,30
2016-07-03T16:43:00.743Z,30
2016-07-03T16:44:00.702Z,35
2016-07-03T16:45:01.121Z,35
2016-07-03T16:46:00.757Z,40
2016-07-03T16:47:00.686Z,45
2016-07-03T16:48:00.689Z,50
2016-07-03T16:49:00.698Z,50
2016-07-03T16:50:00.852Z,55
2016-07-03T16:51:00.699Z,60
2016-07-03T16:52:00.709Z,65
2016-07-03T16:53:00.830Z,70
2016-07-03T16:54:01.126Z,80
2016-07-03T16:55:00.775Z,85
2016-07-03T16:56:00.902Z,95
2016-07-03T16:57:00.797Z,100
2016-07-03T16:58:00.717Z,110
2016-07-03T16:59:00.711Z,125
2016-07-03T17:00:00.684Z,130
2016-07-03T17:01:00.685Z,145
2016-07-03T17:02:00.682Z,160
2016-07-03T17:03:00.843Z,170
2016-07-03T17:04:00.728Z,175
2016-07-03T17:05:00.726Z,175
2016-07-03T17:06:00.768Z,175
2016-07-03T17:07:02.525Z,175
2016-07-03T17:08:00.795Z,175
2016-07-03T17:09:00.782Z,175
2016-07-03T17:10:00.675Z,170
2016-07-03T17:11:00.916Z,165
2016-07-03T17:12:00.708Z,150
2016-07-03T17:13:00.974Z,140
2016-07-03T17:14:00.671Z,135
2016-07-03T17:15:00.755Z,135
2016-07-03T17:16:00.697Z,135
2016-07-03T17:17:00.734Z,135
2016-07-03T17:18:01.033Z,135
2016-07-03T17:19:00.728Z,130
2016-07-03T17:20:00.726Z,135
2016-07-03T17:21:01.000Z,125
2016-07-03T17:22:00.897Z,120
2016-07-03T17:23:01.317Z,130
2016-07-03T17:24:01.063Z,130
2016-07-03T17:25:00.794Z,135
2016-07-03T17:26:00.801Z,150
2016-07-03T17:27:00.818Z,165
2016-07-03T17:28:01.005Z,175
2016-07-03T17:29:00.722Z,190
2016-07-03T17:30:01.159Z,200
2016-07-03T17:31:00.748Z,210
2016-07-03T17:32:00.736Z,210
2016-07-03T17:33:00.788Z,205
2016-07-03T17:34:00.728Z,205
2016-07-03T17:35:00.862Z,195
2016-07-03T17:36:00.734Z,190
2016-07-03T17:37:00.784Z,180
2016-07-03T17:38:00.661Z,185
2016-07-03T17:39:00.755Z,180
2016-07-03T17:40:00.699Z,170
2016-07-03T17:41:00.694Z,165
2016-07-03T17:42:00.730Z,150
2016-07-03T17:43:00.789Z,140
2016-07-03T17:44:02.482Z,135
2016-07-03T17:45:00.704Z,135
2016-07-03T17:46:00.701Z,130
2016-07-03T17:47:00.792Z,130
2016-07-03T17:48:00.751Z,125
2016-07-03T17:49:00.971Z,125
2016-07-03T17:50:00.698Z,130
2016-07-03T17:51:00.759Z,135
2016-07-03T17:52:00.729Z,135
2016-07-03T17:53:00.880Z,135
2016-07-03T17:54:00.736Z,130
2016-07-03T17:55:01.205Z,120
2016-07-03T17:56:01.281Z,115
2016-07-03T17:57:01.978Z,110
2016-07-03T17:58:02.087Z,105
2016-07-03T17:59:00.787Z,100
2016-07-03T18:00:01.130Z,95
2016-07-03T18:01:00.941Z,90
2016-07-03T18:02:01.111Z,85
2016-07-03T18:03:01.965Z,85
2016-07-03T18:04:00.905Z,85
2016-07-03T18:05:00.881Z,80
2016-07-03T18:06:00.853Z,80
2016-07-03T18:07:00.859Z,85
2016-07-03T18:08:00.873Z,85
2016-07-03T18:09:00.859Z,85
2016-07-03T18:10:01.777Z,85
2016-07-03T18:11:01.012Z,80
2016-07-03T18:12:00.858Z,80
2016-07-03T18:13:00.883Z,80
2016-07-03T18:14:00.885Z,80
2016-07-03T18:15:00.838Z,80
2016-07-03T18:16:00.854Z,80
2016-07-03T18:17:01.278Z,75
2016-07-03T18:18:00.879Z,75
2016-07-03T18:19:01.043Z,70
2016-07-03T18:20:01.122Z,70
2016-07-03T18:21:01.187Z,65
2016-07-03T18:22:01.356Z,60
2016-07-03T18:23:01.202Z,55
2016-07-03T18:24:00.930Z,50
2016-07-03T18:25:01.876Z,50
2016-07-03T18:26:00.849Z,45
2016-07-03T18:27:00.817Z,45
2016-07-03T18:28:00.886Z,45
2016-07-03T18:29:00.880Z,40
2016-07-03T18:30:01.022Z,40
2016-07-03T18:31:01.141Z,40
2016-07-03T18:32:01.178Z,40
2016-07-03T18:33:01.066Z,40
2016-07-03T18:34:00.947Z,35
2016-07-03T18:35:01.322Z,35
2016-07-03T18:36:00.956Z,35
2016-07-03T18:37:00.948Z,35
2016-07-03T18:38:00.893Z,35
2016-07-03T18:39:01.325Z,40
2016-07-03T18:40:01.040Z,45
2016-07-03T18:41:00.972Z,55
2016-07-03T18:42:01.136Z,65
2016-07-03T18:43:01.380Z,80
2016-07-03T18:44:01.097Z,90
2016-07-03T18:45:01.018Z,100
2016-07-03T18:46:01.083Z,95
2016-07-03T18:47:00.860Z,90
2016-07-03T18:48:01.012Z,90
2016-07-03T18:49:01.061Z,85
2016-07-03T18:50:00.914Z,85
2016-07-03T18:51:01.369Z,85
2016-07-03T18:52:00.946Z,80
2016-07-03T18:53:01.512Z,80
2016-07-03T18:54:01.850Z,75
2016-07-03T18:55:01.163Z,75
2016-07-03T18:56:01.166Z,70
2016-07-03T18:57:00.933Z,70
2016-07-03T18:58:00.906Z,70
2016-07-03T18:59:01.275Z,70
2016-07-03T19:00:01.698Z,70
2016-07-03T19:01:01.060Z,70
2016-07-03T19:02:01.066Z,70
2016-07-03T19:03:01.218Z,65
2016-07-03T19:04:01.031Z,65
2016-07-03T19:05:01.238Z,60
2016-07-03T19:06:00.882Z,55
2016-07-03T19:07:01.502Z,55
2016-07-03T19:08:01.388Z,50
2016-07-03T19:09:01.426Z,50
2016-07-03T19:10:02.811Z,50
2016-07-03T19:11:01.139Z,50
2016-07-03T19:12:01.333Z,50
2016-07-03T19:13:00.940Z,45
2016-07-03T19:14:01.218Z,45
2016-07-03T19:15:00.920Z,45
2016-07-03T19:16:00.978Z,45
2016-07-03T19:17:01.030Z,40
2016-07-03T19:18:01.188Z,40
2016-07-03T19:19:01.635Z,35
2016-07-03T19:20:00.954Z,35
2016-07-03T19:21:02.048Z,35
2016-07-03T19:22:00.945Z,35
2016-07-03T19:23:01.039Z,30
2016-07-03T19:24:01.295Z,30
2016-07-03T19:25:01.187Z,30
2016-07-03T19:26:01.238Z,30
2016-07-03T19:27:01.084Z,30
2016-07-03T19:28:00.985Z,30
2016-07-03T19:29:01.050Z,30
2016-07-03T19:30:01.070Z,25
2016-07-03T19:31:01.185Z,25
2016-07-03T19:32:01.051Z,25
2016-07-03T19:33:01.125Z,25
2016-07-03T19:34:00.945Z,20
2016-07-03T19:35:02.661Z,20
2016-07-03T19:36:00.976Z,20
2016-07-03T19:37:00.994Z,20
2016-07-03T19:38:01.462Z,20
2016-07-03T19:39:01.119Z,20
2016-07-03T19:40:02.345Z,15
2016-07-03T19:41:00.967Z,15
2016-07-03T19:42:00.910Z,15
2016-07-03T19:43:01.583Z,15
2016-07-03T19:44:00.922Z,15
2016-07-03T19:45:01.075Z,15
2016-07-03T19:46:01.439Z,10
2016-07-03T19:47:00.908Z,10
2016-07-03T19:48:01.283Z,10
2016-07-03T19:49:01.740Z,10
2016-07-03T19:50:01.127Z,5
2016-07-03T19:51:01.938Z,5
2016-07-03T19:52:01.033Z,5
2016-07-03T19:53:01.577Z,5
2016-07-03T19:54:00.927Z,5
2016-07-03T19:55:01.017Z,5
2016-07-03T19:56:01.642Z,5
2016-07-03T19:57:01.123Z,5
2016-07-03T19:58:01.094Z,5
2016-07-03T19:59:01.036Z,5
2016-07-03T20:00:01.230Z,0
2016-07-03T20:01:01.068Z,0
2016-07-03T20:02:01.201Z,0
2016-07-03T20:03:01.186Z,0
2016-07-03T20:04:01.153Z,0
2016-07-03T20:05:01.085Z,0
2016-07-03T20:06:00.996Z,0
2016-07-03T20:07:01.284Z,0
2016-07-03T20:08:01.044Z,0
2016-07-03T20:09:01.108Z,0
2016-07-03T20:10:01.215Z,0
2016-07-03T20:11:01.024Z,0
2016-07-03T20:12:01.141Z,0
2016-07-03T20:13:01.401Z,0
2016-07-03T20:14:01.799Z,0
2016-07-03T20:15:01.830Z,0
2016-07-03T20:16:02.041Z,0
2016-07-03T20:17:01.324Z,0
2016-07-03T20:18:01.827Z,0
2016-07-03T20:19:01.854Z,0
2016-07-03T20:20:00.989Z,0
2016-07-03T20:21:01.001Z,0
2016-07-03T20:22:00.988Z,0
2016-07-03T20:23:01.140Z,0
2016-07-03T20:24:01.079Z,0
2016-07-03T20:25:00.995Z,0
2016-07-03T20:26:01.092Z,0
2016-07-03T20:27:01.012Z,0
2016-07-03T20:28:00.954Z,0
2016-07-03T20:29:00.985Z,0
2016-07-03T20:30:01.019Z,0
2016-07-03T20:31:01.051Z,0
2016-07-03T20:32:00.959Z,0
2016-07-03T20:33:01.262Z,0
2016-07-03T20:34:01.059Z,0
2016-07-03T20:35:01.019Z,0
2016-07-03T20:36:01.027Z,0
2016-07-03T20:37:01.386Z,0
2016-07-03T20:38:01.060Z,0
2016-07-03T20:39:01.048Z,0
2016-07-03T20:40:01.012Z,0
2016-07-03T20:41:01.053Z,0
2016-07-03T20:42:00.968Z,0
2016-07-03T20:43:01.268Z,0
2016-07-03T20:44:01.152Z,0
2016-07-03T20:45:01.149Z,0
2016-07-03T20:46:01.150Z,0
2016-07-03T20:47:01.037Z,0
2016-07-03T20:48:01.333Z,0
2016-07-03T20:49:04.224Z,0
2016-07-03T20:50:01.347Z,0
2016-07-03T20:51:01.192Z,0
2016-07-03T20:52:00.992Z,0
2016-07-03T20:53:01.108Z,0
2016-07-03T20:54:00.951Z,0
2016-07-03T20:55:00.988Z,0
2016-07-03T20:56:01.021Z,0
2016-07-03T20:57:01.010Z,0
2016-07-03T20:58:00.969Z,0
2016-07-03T20:59:01.001Z,0
2016-07-03T21:00:01.079Z,0
2016-07-03T21:01:01.522Z,0
2016-07-03T21:02:02.436Z,0
2016-07-03T21:03:02.050Z,0
2016-07-03T21:04:01.692Z,0
2016-07-03T21:05:02.078Z,0
2016-07-03T21:06:02.823Z,0
2016-07-03T21:07:01.862Z,0
2016-07-03T21:08:02.326Z,0
2016-07-03T21:09:01.496Z,0
2016-07-03T21:10:01.652Z,0
2016-07-03T21:11:01.535Z,0
2016-07-03T21:12:01.680Z,0
2016-07-03T21:14:01.539Z,0
2016-07-03T21:14:14.351Z,0
2016-07-03T21:15:14.400Z,0
2016-07-03T21:16:13.711Z,0
2016-07-03T21:17:14.195Z,0
2016-07-03T21:18:14.170Z,0
2016-07-03T21:19:13.582Z,0
2016-07-03T21:20:13.720Z,0
2016-07-03T21:21:14.217Z,0
2016-07-03T21:22:13.731Z,0
2016-07-03T21:23:13.507Z,0
2016-07-03T21:24:13.832Z,0
2016-07-03T21:25:13.649Z,0
2016-07-03T21:26:13.599Z,0
2016-07-03T21:27:13.560Z,0
2016-07-03T21:28:13.537Z,0
2016-07-03T21:29:13.858Z,0
2016-07-03T21:30:14.076Z,0
2016-07-03T21:31:14.405Z,0
2016-07-03T21:32:14.042Z,0
2016-07-03T21:33:13.736Z,0
2016-07-03T21:34:13.602Z,0
2016-07-03T21:35:14.009Z,0
2016-07-03T21:36:13.765Z,0
2016-07-03T21:37:14.018Z,0
2016-07-03T21:38:14.079Z,0
2016-07-03T21:39:13.892Z,0
2016-07-03T21:40:13.792Z,0
2016-07-03T21:41:13.992Z,0
2016-07-03T21:42:13.795Z,0
2016-07-03T21:43:14.112Z,0
2016-07-03T21:44:13.589Z,0
2016-07-03T21:45:14.503Z,0
2016-07-03T21:46:13.582Z,0
2016-07-03T21:47:13.527Z,0
2016-07-03T21:48:13.705Z,0
2016-07-03T21:49:13.833Z,0
2016-07-03T21:50:13.552Z,0
2016-07-03T21:51:13.598Z,0
2016-07-03T21:52:13.562Z,0
2016-07-03T21:53:13.513Z,0
2016-07-03T21:54:13.620Z,0
2016-07-03T21:55:13.533Z,0
2016-07-03T21:56:13.508Z,0
2016-07-03T21:57:13.576Z,0
2016-07-03T21:58:13.531Z,0
2016-07-03T21:59:13.500Z,0
2016-07-03T22:00:13.515Z,0
2016-07-03T22:01:13.526Z,0
2016-07-03T22:02:34.477Z,0
2016-07-03T22:03:13.570Z,0
2016-07-03T22:04:13.621Z,0
2016-07-03T22:05:13.536Z,0
2016-07-03T22:06:13.539Z,0
2016-07-03T22:07:13.519Z,0
2016-07-03T22:08:13.533Z,0
2016-07-03T22:09:13.570Z,0
2016-07-03T22:10:13.625Z,0
2016-07-03T22:11:13.561Z,0
2016-07-03T22:12:13.575Z,0
2016-07-03T22:13:13.607Z,0
2016-07-03T22:14:13.492Z,0
2016-07-03T22:15:13.562Z,0
2016-07-03T22:16:13.525Z,0
2016-07-03T22:17:13.616Z,0
2016-07-03T22:18:13.493Z,0
2016-07-03T22:19:13.514Z,0
2016-07-03T22:20:13.654Z,0
2016-07-03T22:21:13.979Z,0
2016-07-03T22:22:13.668Z,0
2016-07-03T22:23:13.607Z,0
2016-07-03T22:24:13.496Z,0
2016-07-03T22:25:13.691Z,0
2016-07-03T22:26:14.653Z,0
2016-07-03T22:27:13.721Z,0
2016-07-03T22:28:13.986Z,0
2016-07-03T22:29:14.648Z,0
2016-07-03T22:30:13.952Z,0
2016-07-03T22:31:14.178Z,0
2016-07-03T22:32:14.994Z,0
2016-07-03T22:33:14.149Z,0
2016-07-03T22:34:13.859Z,0
2016-07-03T22:35:13.534Z,0
2016-07-03T22:36:13.530Z,0
2016-07-03T22:37:14.451Z,0
2016-07-03T22:38:13.553Z,0
2016-07-03T22:39:13.663Z,0
2016-07-03T22:40:13.601Z,0
2016-07-03T22:41:13.528Z,0
2016-07-03T22:42:13.845Z,0
2016-07-03T22:43:13.603Z,0
2016-07-03T22:44:13.727Z,0
2016-07-03T22:45:13.588Z,0
2016-07-03T22:46:13.928Z,0
2016-07-03T22:47:13.559Z,0
2016-07-03T22:48:13.677Z,0
2016-07-03T22:49:13.565Z,0
2016-07-03T22:50:13.662Z,0
2016-07-03T22:51:13.583Z,0
2016-07-03T22:52:13.983Z,0
2016-07-03T22:53:13.602Z,0
2016-07-03T22:54:13.598Z,0
2016-07-03T22:55:13.669Z,0
2016-07-03T22:56:14.254Z,0
2016-07-03T22:57:13.653Z,0
2016-07-03T22:58:13.773Z,0
2016-07-03T22:59:13.731Z,0
2016-07-03T23:00:13.580Z,0
2016-07-03T23:01:13.696Z,0
2016-07-03T23:02:13.596Z,0
2016-07-03T23:03:13.679Z,0
2016-07-03T23:04:13.709Z,0
2016-07-03T23:05:13.673Z,0
2016-07-03T23:06:13.577Z,0
2016-07-03T23:07:13.631Z,0
2016-07-03T23:08:13.566Z,0
2016-07-03T23:09:13.545Z,0
2016-07-03T23:10:13.684Z,0
2016-07-03T23:11:13.611Z,0
2016-07-03T23:12:13.610Z,0
2016-07-03T23:13:13.655Z,0
2016-07-03T23:14:13.652Z,0
2016-07-03T23:15:13.625Z,0
2016-07-03T23:16:13.612Z,0
2016-07-03T23:17:13.610Z,0
2016-07-03T23:18:13.625Z,0
2016-07-03T23:19:13.612Z,0
2016-07-03T23:20:14.236Z,0
2016-07-03T23:21:13.577Z,0
2016-07-03T23:22:13.598Z,0
2016-07-03T23:23:13.606Z,0
2016-07-03T23:24:13.568Z,0
2016-07-03T23:25:14.219Z,0
2016-07-03T23:26:13.971Z,0
2016-07-03T23:27:13.591Z,0
2016-07-03T23:28:13.597Z,0
2016-07-03T23:29:13.630Z,0
2016-07-03T23:30:14.837Z,0
2016-07-03T23:31:14.635Z,0
2016-07-03T23:32:14.412Z,0
2016-07-03T23:33:14.649Z,0
2016-07-03T23:34:14.859Z,0
2016-07-03T23:35:13.558Z,0
2016-07-03T23:36:13.597Z,0
2016-07-03T23:37:13.592Z,0
2016-07-03T23:38:13.645Z,0
2016-07-03T23:39:14.217Z,0
2016-07-03T23:40:13.630Z,0
2016-07-03T23:41:13.600Z,0
2016-07-03T23:42:13.654Z,0
2016-07-03T23:43:14.328Z,0
2016-07-03T23:44:14.103Z,0
2016-07-03T23:45:13.571Z,0
2016-07-03T23:46:13.650Z,0
2016-07-03T23:47:13.565Z,0
2016-07-03T23:48:13.567Z,0
2016-07-03T23:49:13.565Z,0
2016-07-03T23:50:13.618Z,0
2016-07-03T23:51:13.561Z,0
2016-07-03T23:52:13.626Z,0
2016-07-03T23:53:13.561Z,0
2016-07-03T23:54:13.639Z,0
2016-07-03T23:55:13.624Z,0
2016-07-03T23:56:13.621Z,0
2016-07-03T23:57:13.634Z,0
2016-07-03T23:58:13.635Z,0
2016-07-03T23:59:15.400Z,0
